sensor_id;sensor_type;location;lat;lon;timestamp;pressure;altitude;pressure_sealevel;temperature
10598;BMP180;5346;48.766;8.674;2023-11-19T00:00:56;93916.00;;;8.70
10598;BMP180;5346;48.766;8.674;2023-11-19T00:03:48;93901.00;;;8.70
10598;BMP180;5346;48.766;8.674;2023-11-19T00:06:18;93909.00;;;8.70
10598;BMP180;5346;48.766;8.674;2023-11-19T00:08:52;93905.00;;;8.70
10598;BMP180;5346;48.766;8.674;2023-11-19T00:11:26;93899.00;;;8.70
10598;BMP180;5346;48.766;8.674;2023-11-19T00:14:00;93908.00;;;8.60
10598;BMP180;5346;48.766;8.674;2023-11-19T00:16:34;93889.00;;;8.70
10598;BMP180;5346;48.766;8.674;2023-11-19T00:19:08;93895.00;;;8.60
10598;BMP180;5346;48.766;8.674;2023-11-19T00:21:36;93891.00;;;8.60
10598;BMP180;5346;48.766;8.674;2023-11-19T00:24:04;93887.00;;;8.50
10598;BMP180;5346;48.766;8.674;2023-11-19T00:26:38;93878.00;;;8.50
10598;BMP180;5346;48.766;8.674;2023-11-19T00:29:12;93878.00;;;8.50
10598;BMP180;5346;48.766;8.674;2023-11-19T00:31:41;93882.00;;;8.70
10598;BMP180;5346;48.766;8.674;2023-11-19T00:34:15;93880.00;;;8.60
10598;BMP180;5346;48.766;8.674;2023-11-19T00:36:50;93872.00;;;8.60
10598;BMP180;5346;48.766;8.674;2023-11-19T00:39:18;93875.00;;;8.60
10598;BMP180;5346;48.766;8.674;2023-11-19T00:41:53;93869.00;;;8.60
10598;BMP180;5346;48.766;8.674;2023-11-19T00:44:21;93859.00;;;8.60
10598;BMP180;5346;48.766;8.674;2023-11-19T00:46:49;93872.00;;;8.60
10598;BMP180;5346;48.766;8.674;2023-11-19T00:49:30;93873.00;;;8.60
10598;BMP180;5346;48.766;8.674;2023-11-19T00:52:00;93867.00;;;8.60
10598;BMP180;5346;48.766;8.674;2023-11-19T00:54:34;93866.00;;;8.50
10598;BMP180;5346;48.766;8.674;2023-11-19T00:57:08;93860.00;;;8.60
10598;BMP180;5346;48.766;8.674;2023-11-19T00:59:36;93863.00;;;8.60
10598;BMP180;5346;48.766;8.674;2023-11-19T01:02:17;93862.00;;;8.60
10598;BMP180;5346;48.766;8.674;2023-11-19T01:04:51;93860.00;;;8.60
10598;BMP180;5346;48.766;8.674;2023-11-19T01:07:26;93858.00;;;8.70
10598;BMP180;5346;48.766;8.674;2023-11-19T01:09:54;93853.00;;;8.70
10598;BMP180;5346;48.766;8.674;2023-11-19T01:12:29;93858.00;;;8.60
10598;BMP180;5346;48.766;8.674;2023-11-19T01:14:59;93845.00;;;8.60
10598;BMP180;5346;48.766;8.674;2023-11-19T01:17:33;93849.00;;;8.60
10598;BMP180;5346;48.766;8.674;2023-11-19T01:20:17;93857.00;;;8.60
10598;BMP180;5346;48.766;8.674;2023-11-19T01:22:53;93848.00;;;8.50
10598;BMP180;5346;48.766;8.674;2023-11-19T01:25:28;93847.00;;;8.60
10598;BMP180;5346;48.766;8.674;2023-11-19T01:27:56;93851.00;;;8.60
10598;BMP180;5346;48.766;8.674;2023-11-19T01:30:33;93858.00;;;8.50
10598;BMP180;5346;48.766;8.674;2023-11-19T01:33:01;93856.00;;;8.60
10598;BMP180;5346;48.766;8.674;2023-11-19T01:35:35;93846.00;;;8.70
10598;BMP180;5346;48.766;8.674;2023-11-19T01:38:03;93852.00;;;8.60
10598;BMP180;5346;48.766;8.674;2023-11-19T01:40:30;93840.00;;;8.60
10598;BMP180;5346;48.766;8.674;2023-11-19T01:43:04;93841.00;;;8.60
10598;BMP180;5346;48.766;8.674;2023-11-19T01:45:41;93851.00;;;8.60
10598;BMP180;5346;48.766;8.674;2023-11-19T01:48:19;93846.00;;;8.70
10598;BMP180;5346;48.766;8.674;2023-11-19T01:50:46;93829.00;;;8.70
10598;BMP180;5346;48.766;8.674;2023-11-19T01:53:29;93835.00;;;8.70
10598;BMP180;5346;48.766;8.674;2023-11-19T01:55:59;93843.00;;;8.60
10598;BMP180;5346;48.766;8.674;2023-11-19T01:58:35;93845.00;;;8.70
10598;BMP180;5346;48.766;8.674;2023-11-19T02:01:16;93837.00;;;8.70
10598;BMP180;5346;48.766;8.674;2023-11-19T02:03:58;93833.00;;;8.80
10598;BMP180;5346;48.766;8.674;2023-11-19T02:06:34;93834.00;;;8.80
10598;BMP180;5346;48.766;8.674;2023-11-19T02:09:02;93833.00;;;8.70
10598;BMP180;5346;48.766;8.674;2023-11-19T02:11:43;93839.00;;;8.80
10598;BMP180;5346;48.766;8.674;2023-11-19T02:14:12;93833.00;;;8.90
10598;BMP180;5346;48.766;8.674;2023-11-19T02:16:46;93823.00;;;8.90
10598;BMP180;5346;48.766;8.674;2023-11-19T02:19:14;93828.00;;;9.00
10598;BMP180;5346;48.766;8.674;2023-11-19T02:21:48;93825.00;;;9.10
10598;BMP180;5346;48.766;8.674;2023-11-19T02:24:26;93824.00;;;9.30
10598;BMP180;5346;48.766;8.674;2023-11-19T02:27:13;93825.00;;;9.30
10598;BMP180;5346;48.766;8.674;2023-11-19T02:29:49;93826.00;;;9.30
10598;BMP180;5346;48.766;8.674;2023-11-19T02:32:23;93824.00;;;9.30
10598;BMP180;5346;48.766;8.674;2023-11-19T02:34:50;93816.00;;;9.40
10598;BMP180;5346;48.766;8.674;2023-11-19T02:37:30;93832.00;;;9.30
10598;BMP180;5346;48.766;8.674;2023-11-19T02:39:58;93821.00;;;9.40
10598;BMP180;5346;48.766;8.674;2023-11-19T02:42:46;93835.00;;;9.40
10598;BMP180;5346;48.766;8.674;2023-11-19T02:45:21;93822.00;;;9.40
10598;BMP180;5346;48.766;8.674;2023-11-19T02:47:56;93806.00;;;9.40
10598;BMP180;5346;48.766;8.674;2023-11-19T02:50:24;93810.00;;;9.40
10598;BMP180;5346;48.766;8.674;2023-11-19T02:53:00;93819.00;;;9.40
10598;BMP180;5346;48.766;8.674;2023-11-19T02:55:28;93832.00;;;9.50
10598;BMP180;5346;48.766;8.674;2023-11-19T02:58:07;93831.00;;;9.40
10598;BMP180;5346;48.766;8.674;2023-11-19T03:00:47;93839.00;;;9.50
10598;BMP180;5346;48.766;8.674;2023-11-19T03:03:42;93831.00;;;9.60
10598;BMP180;5346;48.766;8.674;2023-11-19T03:06:10;93824.00;;;9.50
10598;BMP180;5346;48.766;8.674;2023-11-19T03:08:45;93825.00;;;9.40
10598;BMP180;5346;48.766;8.674;2023-11-19T03:11:13;93822.00;;;9.60
10598;BMP180;5346;48.766;8.674;2023-11-19T03:13:47;93821.00;;;9.60
10598;BMP180;5346;48.766;8.674;2023-11-19T03:16:22;93820.00;;;9.60
10598;BMP180;5346;48.766;8.674;2023-11-19T03:18:57;93821.00;;;9.70
10598;BMP180;5346;48.766;8.674;2023-11-19T03:21:31;93822.00;;;9.60
10598;BMP180;5346;48.766;8.674;2023-11-19T03:23:59;93810.00;;;9.60
10598;BMP180;5346;48.766;8.674;2023-11-19T03:26:28;93818.00;;;9.50
10598;BMP180;5346;48.766;8.674;2023-11-19T03:29:02;93815.00;;;9.70
10598;BMP180;5346;48.766;8.674;2023-11-19T03:31:36;93815.00;;;9.70
10598;BMP180;5346;48.766;8.674;2023-11-19T03:34:15;93817.00;;;9.70
10598;BMP180;5346;48.766;8.674;2023-11-19T03:36:43;93820.00;;;9.60
10598;BMP180;5346;48.766;8.674;2023-11-19T03:39:17;93816.00;;;9.70
10598;BMP180;5346;48.766;8.674;2023-11-19T03:41:48;93817.00;;;9.70
10598;BMP180;5346;48.766;8.674;2023-11-19T03:44:21;93816.00;;;9.80
10598;BMP180;5346;48.766;8.674;2023-11-19T03:46:49;93800.00;;;9.80
10598;BMP180;5346;48.766;8.674;2023-11-19T03:49:23;93799.00;;;9.80
10598;BMP180;5346;48.766;8.674;2023-11-19T03:51:57;93758.00;;;9.90
10598;BMP180;5346;48.766;8.674;2023-11-19T03:54:31;93794.00;;;10.00
10598;BMP180;5346;48.766;8.674;2023-11-19T03:57:06;93797.00;;;9.80
10598;BMP180;5346;48.766;8.674;2023-11-19T03:59:46;93801.00;;;9.90
10598;BMP180;5346;48.766;8.674;2023-11-19T04:02:16;93797.00;;;10.00
10598;BMP180;5346;48.766;8.674;2023-11-19T04:04:49;93815.00;;;10.10
10598;BMP180;5346;48.766;8.674;2023-11-19T04:07:17;93833.00;;;10.10
10598;BMP180;5346;48.766;8.674;2023-11-19T04:09:51;93817.00;;;10.10
10598;BMP180;5346;48.766;8.674;2023-11-19T04:12:26;93810.00;;;10.20
10598;BMP180;5346;48.766;8.674;2023-11-19T04:14:54;93809.00;;;10.00
10598;BMP180;5346;48.766;8.674;2023-11-19T04:17:31;93805.00;;;10.00
10598;BMP180;5346;48.766;8.674;2023-11-19T04:20:06;93803.00;;;10.20
10598;BMP180;5346;48.766;8.674;2023-11-19T04:22:44;93816.00;;;10.10
10598;BMP180;5346;48.766;8.674;2023-11-19T04:25:12;93799.00;;;10.30
10598;BMP180;5346;48.766;8.674;2023-11-19T04:27:39;93819.00;;;10.40
10598;BMP180;5346;48.766;8.674;2023-11-19T04:30:13;93815.00;;;10.40
10598;BMP180;5346;48.766;8.674;2023-11-19T04:32:47;93815.00;;;10.20
10598;BMP180;5346;48.766;8.674;2023-11-19T04:35:16;93806.00;;;10.20
10598;BMP180;5346;48.766;8.674;2023-11-19T04:37:53;93819.00;;;10.20
10598;BMP180;5346;48.766;8.674;2023-11-19T04:40:30;93822.00;;;10.30
10598;BMP180;5346;48.766;8.674;2023-11-19T04:43:07;93804.00;;;10.40
10598;BMP180;5346;48.766;8.674;2023-11-19T04:45:40;93812.00;;;10.40
10598;BMP180;5346;48.766;8.674;2023-11-19T04:48:14;93813.00;;;10.30
10598;BMP180;5346;48.766;8.674;2023-11-19T04:50:42;93823.00;;;10.40
10598;BMP180;5346;48.766;8.674;2023-11-19T04:53:16;93828.00;;;10.50
10598;BMP180;5346;48.766;8.674;2023-11-19T04:55:44;93827.00;;;10.40
10598;BMP180;5346;48.766;8.674;2023-11-19T04:58:18;93823.00;;;10.40
10598;BMP180;5346;48.766;8.674;2023-11-19T05:00:52;93819.00;;;10.50
10598;BMP180;5346;48.766;8.674;2023-11-19T05:03:33;93824.00;;;10.40
10598;BMP180;5346;48.766;8.674;2023-11-19T05:06:09;93831.00;;;10.40
10598;BMP180;5346;48.766;8.674;2023-11-19T05:08:43;93827.00;;;10.40
10598;BMP180;5346;48.766;8.674;2023-11-19T05:11:18;93815.00;;;10.50
10598;BMP180;5346;48.766;8.674;2023-11-19T05:13:47;93817.00;;;10.30
10598;BMP180;5346;48.766;8.674;2023-11-19T05:16:21;93826.00;;;10.30
10598;BMP180;5346;48.766;8.674;2023-11-19T05:18:49;93826.00;;;10.40
10598;BMP180;5346;48.766;8.674;2023-11-19T05:21:24;93822.00;;;10.40
10598;BMP180;5346;48.766;8.674;2023-11-19T05:23:51;93826.00;;;10.40
10598;BMP180;5346;48.766;8.674;2023-11-19T05:26:25;93799.00;;;10.30
10598;BMP180;5346;48.766;8.674;2023-11-19T05:28:55;93829.00;;;10.30
10598;BMP180;5346;48.766;8.674;2023-11-19T05:31:28;93818.00;;;10.30
10598;BMP180;5346;48.766;8.674;2023-11-19T05:33:59;93806.00;;;10.40
10598;BMP180;5346;48.766;8.674;2023-11-19T05:36:33;93808.00;;;10.40
10598;BMP180;5346;48.766;8.674;2023-11-19T05:39:07;93811.00;;;10.40
10598;BMP180;5346;48.766;8.674;2023-11-19T05:41:42;93809.00;;;10.50
10598;BMP180;5346;48.766;8.674;2023-11-19T05:44:17;93807.00;;;10.40
10598;BMP180;5346;48.766;8.674;2023-11-19T05:46:46;93804.00;;;10.40
10598;BMP180;5346;48.766;8.674;2023-11-19T05:49:20;93789.00;;;10.40
10598;BMP180;5346;48.766;8.674;2023-11-19T05:51:54;93799.00;;;10.40
10598;BMP180;5346;48.766;8.674;2023-11-19T05:54:23;93797.00;;;10.40
10598;BMP180;5346;48.766;8.674;2023-11-19T05:56:58;93801.00;;;10.40
10598;BMP180;5346;48.766;8.674;2023-11-19T05:59:32;93790.00;;;10.30
10598;BMP180;5346;48.766;8.674;2023-11-19T06:02:08;93811.00;;;10.40
10598;BMP180;5346;48.766;8.674;2023-11-19T06:04:55;93796.00;;;10.40
10598;BMP180;5346;48.766;8.674;2023-11-19T06:07:22;93811.00;;;10.40
10598;BMP180;5346;48.766;8.674;2023-11-19T06:09:56;93806.00;;;10.50
10598;BMP180;5346;48.766;8.674;2023-11-19T06:12:33;93805.00;;;10.40
10598;BMP180;5346;48.766;8.674;2023-11-19T06:15:08;93797.00;;;10.50
10598;BMP180;5346;48.766;8.674;2023-11-19T06:17:42;93812.00;;;10.40
10598;BMP180;5346;48.766;8.674;2023-11-19T06:20:17;93808.00;;;10.50
10598;BMP180;5346;48.766;8.674;2023-11-19T06:22:47;93815.00;;;10.50
10598;BMP180;5346;48.766;8.674;2023-11-19T06:25:20;93820.00;;;10.50
10598;BMP180;5346;48.766;8.674;2023-11-19T06:27:48;93810.00;;;10.50
10598;BMP180;5346;48.766;8.674;2023-11-19T06:30:23;93811.00;;;10.50
10598;BMP180;5346;48.766;8.674;2023-11-19T06:32:51;93815.00;;;10.40
10598;BMP180;5346;48.766;8.674;2023-11-19T06:35:18;93820.00;;;10.50
10598;BMP180;5346;48.766;8.674;2023-11-19T06:37:55;93800.00;;;10.40
10598;BMP180;5346;48.766;8.674;2023-11-19T06:40:25;93804.00;;;10.40
10598;BMP180;5346;48.766;8.674;2023-11-19T06:42:59;93804.00;;;10.30
10598;BMP180;5346;48.766;8.674;2023-11-19T06:45:27;93799.00;;;10.20
10598;BMP180;5346;48.766;8.674;2023-11-19T06:48:02;93801.00;;;10.20
10598;BMP180;5346;48.766;8.674;2023-11-19T06:50:33;93804.00;;;10.10
10598;BMP180;5346;48.766;8.674;2023-11-19T06:53:15;93794.00;;;10.10
10598;BMP180;5346;48.766;8.674;2023-11-19T06:55:45;93790.00;;;10.20
10598;BMP180;5346;48.766;8.674;2023-11-19T06:58:20;93803.00;;;10.30
10598;BMP180;5346;48.766;8.674;2023-11-19T07:00:47;93800.00;;;10.30
10598;BMP180;5346;48.766;8.674;2023-11-19T07:03:24;93796.00;;;10.20
10598;BMP180;5346;48.766;8.674;2023-11-19T07:05:58;93808.00;;;10.30
10598;BMP180;5346;48.766;8.674;2023-11-19T07:08:32;93799.00;;;10.30
10598;BMP180;5346;48.766;8.674;2023-11-19T07:11:00;93806.00;;;10.40
10598;BMP180;5346;48.766;8.674;2023-11-19T07:13:35;93825.00;;;10.30
10598;BMP180;5346;48.766;8.674;2023-11-19T07:16:10;93819.00;;;10.50
10598;BMP180;5346;48.766;8.674;2023-11-19T07:18:45;93822.00;;;10.50
10598;BMP180;5346;48.766;8.674;2023-11-19T07:21:20;93819.00;;;10.60
10598;BMP180;5346;48.766;8.674;2023-11-19T07:23:47;93839.00;;;10.50
10598;BMP180;5346;48.766;8.674;2023-11-19T07:26:25;93837.00;;;10.60
10598;BMP180;5346;48.766;8.674;2023-11-19T07:28:53;93838.00;;;10.60
10598;BMP180;5346;48.766;8.674;2023-11-19T07:31:35;93848.00;;;10.60
10598;BMP180;5346;48.766;8.674;2023-11-19T07:34:04;93851.00;;;10.60
10598;BMP180;5346;48.766;8.674;2023-11-19T07:36:43;93841.00;;;10.70
10598;BMP180;5346;48.766;8.674;2023-11-19T07:39:13;93838.00;;;10.60
10598;BMP180;5346;48.766;8.674;2023-11-19T07:41:49;93845.00;;;10.70
10598;BMP180;5346;48.766;8.674;2023-11-19T07:44:17;93842.00;;;10.60
10598;BMP180;5346;48.766;8.674;2023-11-19T07:46:54;93831.00;;;10.70
10598;BMP180;5346;48.766;8.674;2023-11-19T07:49:24;93842.00;;;10.60
10598;BMP180;5346;48.766;8.674;2023-11-19T07:51:59;93845.00;;;10.60
10598;BMP180;5346;48.766;8.674;2023-11-19T07:54:48;93853.00;;;10.40
10598;BMP180;5346;48.766;8.674;2023-11-19T07:57:24;93853.00;;;10.40
10598;BMP180;5346;48.766;8.674;2023-11-19T07:59:59;93845.00;;;10.60
10598;BMP180;5346;48.766;8.674;2023-11-19T08:02:29;93860.00;;;10.50
10598;BMP180;5346;48.766;8.674;2023-11-19T08:05:04;93860.00;;;10.50
10598;BMP180;5346;48.766;8.674;2023-11-19T08:07:33;93861.00;;;10.40
10598;BMP180;5346;48.766;8.674;2023-11-19T08:10:14;93851.00;;;10.30
10598;BMP180;5346;48.766;8.674;2023-11-19T08:12:48;93831.00;;;10.40
10598;BMP180;5346;48.766;8.674;2023-11-19T08:15:24;93831.00;;;10.30
10598;BMP180;5346;48.766;8.674;2023-11-19T08:17:55;93820.00;;;10.70
10598;BMP180;5346;48.766;8.674;2023-11-19T08:20:29;93841.00;;;11.10
10598;BMP180;5346;48.766;8.674;2023-11-19T08:22:58;93842.00;;;11.20
10598;BMP180;5346;48.766;8.674;2023-11-19T08:25:33;93858.00;;;11.40
10598;BMP180;5346;48.766;8.674;2023-11-19T08:28:10;93871.00;;;11.20
10598;BMP180;5346;48.766;8.674;2023-11-19T08:30:41;93853.00;;;11.00
10598;BMP180;5346;48.766;8.674;2023-11-19T08:33:20;93841.00;;;11.00
10598;BMP180;5346;48.766;8.674;2023-11-19T08:35:50;93859.00;;;11.50
10598;BMP180;5346;48.766;8.674;2023-11-19T08:38:26;93840.00;;;11.90
10598;BMP180;5346;48.766;8.674;2023-11-19T08:40:57;93827.00;;;11.90
10598;BMP180;5346;48.766;8.674;2023-11-19T08:43:34;93841.00;;;11.50
10598;BMP180;5346;48.766;8.674;2023-11-19T08:46:12;93821.00;;;11.80
10598;BMP180;5346;48.766;8.674;2023-11-19T08:48:47;93844.00;;;11.90
10598;BMP180;5346;48.766;8.674;2023-11-19T08:51:24;93836.00;;;12.20
10598;BMP180;5346;48.766;8.674;2023-11-19T08:53:52;93862.00;;;12.00
10598;BMP180;5346;48.766;8.674;2023-11-19T08:56:27;93860.00;;;11.50
10598;BMP180;5346;48.766;8.674;2023-11-19T08:59:06;93836.00;;;11.40
10598;BMP180;5346;48.766;8.674;2023-11-19T09:01:43;93860.00;;;11.50
10598;BMP180;5346;48.766;8.674;2023-11-19T09:04:20;93836.00;;;12.10
10598;BMP180;5346;48.766;8.674;2023-11-19T09:06:54;93829.00;;;12.40
10598;BMP180;5346;48.766;8.674;2023-11-19T09:09:30;93861.00;;;12.30
10598;BMP180;5346;48.766;8.674;2023-11-19T09:11:58;93851.00;;;12.30
10598;BMP180;5346;48.766;8.674;2023-11-19T09:14:32;93842.00;;;12.10
10598;BMP180;5346;48.766;8.674;2023-11-19T09:17:00;93840.00;;;12.30
10598;BMP180;5346;48.766;8.674;2023-11-19T09:19:34;93849.00;;;12.80
10598;BMP180;5346;48.766;8.674;2023-11-19T09:22:03;93832.00;;;13.50
10598;BMP180;5346;48.766;8.674;2023-11-19T09:24:38;93832.00;;;13.60
10598;BMP180;5346;48.766;8.674;2023-11-19T09:27:06;93834.00;;;13.50
10598;BMP180;5346;48.766;8.674;2023-11-19T09:29:41;93850.00;;;13.70
10598;BMP180;5346;48.766;8.674;2023-11-19T09:32:08;93859.00;;;14.00
10598;BMP180;5346;48.766;8.674;2023-11-19T09:34:43;93858.00;;;13.90
10598;BMP180;5346;48.766;8.674;2023-11-19T09:37:10;93851.00;;;14.30
10598;BMP180;5346;48.766;8.674;2023-11-19T09:39:54;93841.00;;;13.90
10598;BMP180;5346;48.766;8.674;2023-11-19T09:42:25;93848.00;;;14.20
10598;BMP180;5346;48.766;8.674;2023-11-19T09:45:01;93837.00;;;13.50
10598;BMP180;5346;48.766;8.674;2023-11-19T09:47:31;93673.00;;;12.60
10598;BMP180;5346;48.766;8.674;2023-11-19T09:50:06;93765.00;;;13.40
10598;BMP180;5346;48.766;8.674;2023-11-19T09:52:44;93841.00;;;13.60
10598;BMP180;5346;48.766;8.674;2023-11-19T09:55:20;93844.00;;;14.00
10598;BMP180;5346;48.766;8.674;2023-11-19T09:57:55;93841.00;;;13.30
10598;BMP180;5346;48.766;8.674;2023-11-19T10:00:23;93837.00;;;13.80
10598;BMP180;5346;48.766;8.674;2023-11-19T10:03:08;93828.00;;;13.90
10598;BMP180;5346;48.766;8.674;2023-11-19T10:05:43;93848.00;;;14.30
10598;BMP180;5346;48.766;8.674;2023-11-19T10:08:18;93841.00;;;14.00
10598;BMP180;5346;48.766;8.674;2023-11-19T10:10:47;93842.00;;;14.00
10598;BMP180;5346;48.766;8.674;2023-11-19T10:13:26;93846.00;;;13.90
10598;BMP180;5346;48.766;8.674;2023-11-19T10:16:07;93818.00;;;13.90
10598;BMP180;5346;48.766;8.674;2023-11-19T10:18:49;93819.00;;;14.40
10598;BMP180;5346;48.766;8.674;2023-11-19T10:21:27;93817.00;;;14.20
10598;BMP180;5346;48.766;8.674;2023-11-19T10:24:02;93831.00;;;14.40
10598;BMP180;5346;48.766;8.674;2023-11-19T10:26:36;93816.00;;;14.70
10598;BMP180;5346;48.766;8.674;2023-11-19T10:29:05;93833.00;;;15.00
10598;BMP180;5346;48.766;8.674;2023-11-19T10:31:39;93827.00;;;15.40
10598;BMP180;5346;48.766;8.674;2023-11-19T10:34:25;93815.00;;;14.40
10598;BMP180;5346;48.766;8.674;2023-11-19T10:37:00;93812.00;;;14.90
10598;BMP180;5346;48.766;8.674;2023-11-19T10:39:54;93823.00;;;14.10
10598;BMP180;5346;48.766;8.674;2023-11-19T10:42:35;93811.00;;;14.20
10598;BMP180;5346;48.766;8.674;2023-11-19T10:45:24;93814.00;;;14.20
10598;BMP180;5346;48.766;8.674;2023-11-19T10:48:05;93806.00;;;14.20
10598;BMP180;5346;48.766;8.674;2023-11-19T10:50:36;93795.00;;;15.20
10598;BMP180;5346;48.766;8.674;2023-11-19T10:53:12;93806.00;;;15.50
10598;BMP180;5346;48.766;8.674;2023-11-19T10:55:48;93800.00;;;14.20
10598;BMP180;5346;48.766;8.674;2023-11-19T10:58:23;93794.00;;;15.00
10598;BMP180;5346;48.766;8.674;2023-11-19T11:00:57;93761.00;;;14.40
10598;BMP180;5346;48.766;8.674;2023-11-19T11:03:41;93810.00;;;14.30
10598;BMP180;5346;48.766;8.674;2023-11-19T11:06:11;93803.00;;;14.40
10598;BMP180;5346;48.766;8.674;2023-11-19T11:08:47;93785.00;;;14.60
10598;BMP180;5346;48.766;8.674;2023-11-19T11:11:19;93813.00;;;15.00
10598;BMP180;5346;48.766;8.674;2023-11-19T11:14:02;93815.00;;;15.00
10598;BMP180;5346;48.766;8.674;2023-11-19T11:16:31;93811.00;;;15.30
10598;BMP180;5346;48.766;8.674;2023-11-19T11:19:06;93797.00;;;15.60
10598;BMP180;5346;48.766;8.674;2023-11-19T11:21:37;93796.00;;;15.50
10598;BMP180;5346;48.766;8.674;2023-11-19T11:24:30;93829.00;;;15.60
10598;BMP180;5346;48.766;8.674;2023-11-19T11:30:28;93801.00;;;16.10
10598;BMP180;5346;48.766;8.674;2023-11-19T11:36:13;93797.00;;;15.80
10598;BMP180;5346;48.766;8.674;2023-11-19T11:38:50;93771.00;;;15.90
10598;BMP180;5346;48.766;8.674;2023-11-19T11:41:22;93783.00;;;15.20
10598;BMP180;5346;48.766;8.674;2023-11-19T11:43:57;93774.00;;;15.50
10598;BMP180;5346;48.766;8.674;2023-11-19T11:49:11;93777.00;;;15.70
10598;BMP180;5346;48.766;8.674;2023-11-19T11:59:46;93799.00;;;16.30
10598;BMP180;5346;48.766;8.674;2023-11-19T12:02:28;93786.00;;;16.90
10598;BMP180;5346;48.766;8.674;2023-11-19T12:05:10;93790.00;;;16.90
10598;BMP180;5346;48.766;8.674;2023-11-19T12:07:55;93792.00;;;15.50
10598;BMP180;5346;48.766;8.674;2023-11-19T12:10:37;93800.00;;;15.80
10598;BMP180;5346;48.766;8.674;2023-11-19T12:13:11;93788.00;;;16.10
10598;BMP180;5346;48.766;8.674;2023-11-19T12:16:08;93785.00;;;17.20
10598;BMP180;5346;48.766;8.674;2023-11-19T12:18:43;93781.00;;;15.70
10598;BMP180;5346;48.766;8.674;2023-11-19T12:21:11;93788.00;;;17.00
10598;BMP180;5346;48.766;8.674;2023-11-19T12:23:46;93764.00;;;16.30
10598;BMP180;5346;48.766;8.674;2023-11-19T12:26:38;93769.00;;;16.20
10598;BMP180;5346;48.766;8.674;2023-11-19T12:29:08;93762.00;;;16.50
10598;BMP180;5346;48.766;8.674;2023-11-19T12:31:45;93772.00;;;16.50
10598;BMP180;5346;48.766;8.674;2023-11-19T12:34:21;93768.00;;;16.00
10598;BMP180;5346;48.766;8.674;2023-11-19T12:36:57;93792.00;;;15.70
10598;BMP180;5346;48.766;8.674;2023-11-19T12:39:25;93774.00;;;16.20
10598;BMP180;5346;48.766;8.674;2023-11-19T12:42:00;93762.00;;;16.20
10598;BMP180;5346;48.766;8.674;2023-11-19T12:44:34;93760.00;;;15.90
10598;BMP180;5346;48.766;8.674;2023-11-19T12:47:09;93766.00;;;15.70
10598;BMP180;5346;48.766;8.674;2023-11-19T12:50:04;93771.00;;;16.10
10598;BMP180;5346;48.766;8.674;2023-11-19T12:52:34;93738.00;;;16.90
10598;BMP180;5346;48.766;8.674;2023-11-19T12:55:28;93748.00;;;16.30
10598;BMP180;5346;48.766;8.674;2023-11-19T12:57:58;93732.00;;;16.20
10598;BMP180;5346;48.766;8.674;2023-11-19T13:00:33;93742.00;;;16.60
10598;BMP180;5346;48.766;8.674;2023-11-19T13:03:13;93751.00;;;16.30
10598;BMP180;5346;48.766;8.674;2023-11-19T13:06:14;93751.00;;;16.10
10598;BMP180;5346;48.766;8.674;2023-11-19T13:08:50;93758.00;;;15.50
10598;BMP180;5346;48.766;8.674;2023-11-19T13:11:38;93737.00;;;16.40
10598;BMP180;5346;48.766;8.674;2023-11-19T13:14:15;93744.00;;;15.80
10598;BMP180;5346;48.766;8.674;2023-11-19T13:16:43;93749.00;;;15.50
10598;BMP180;5346;48.766;8.674;2023-11-19T13:19:20;93748.00;;;15.90
10598;BMP180;5346;48.766;8.674;2023-11-19T13:21:53;93736.00;;;15.90
10598;BMP180;5346;48.766;8.674;2023-11-19T13:24:30;93757.00;;;15.40
10598;BMP180;5346;48.766;8.674;2023-11-19T13:26:58;93752.00;;;15.10
10598;BMP180;5346;48.766;8.674;2023-11-19T13:29:26;93778.00;;;15.10
10598;BMP180;5346;48.766;8.674;2023-11-19T13:32:03;93764.00;;;14.70
10598;BMP180;5346;48.766;8.674;2023-11-19T13:34:33;93754.00;;;15.10
10598;BMP180;5346;48.766;8.674;2023-11-19T13:37:14;93736.00;;;14.70
10598;BMP180;5346;48.766;8.674;2023-11-19T13:39:50;93735.00;;;15.20
10598;BMP180;5346;48.766;8.674;2023-11-19T13:42:28;93740.00;;;15.40
10598;BMP180;5346;48.766;8.674;2023-11-19T13:44:56;93739.00;;;16.10
10598;BMP180;5346;48.766;8.674;2023-11-19T13:47:31;93730.00;;;15.80
10598;BMP180;5346;48.766;8.674;2023-11-19T13:50:11;93725.00;;;15.50
10598;BMP180;5346;48.766;8.674;2023-11-19T13:52:47;93719.00;;;15.00
10598;BMP180;5346;48.766;8.674;2023-11-19T13:55:22;93732.00;;;14.90
10598;BMP180;5346;48.766;8.674;2023-11-19T13:58:03;93730.00;;;14.30
10598;BMP180;5346;48.766;8.674;2023-11-19T14:00:39;93729.00;;;14.20
10598;BMP180;5346;48.766;8.674;2023-11-19T14:03:11;93725.00;;;14.00
10598;BMP180;5346;48.766;8.674;2023-11-19T14:05:53;93720.00;;;14.80
10598;BMP180;5346;48.766;8.674;2023-11-19T14:08:29;93731.00;;;14.20
10598;BMP180;5346;48.766;8.674;2023-11-19T14:11:03;93750.00;;;13.70
10598;BMP180;5346;48.766;8.674;2023-11-19T14:13:39;93734.00;;;13.80
10598;BMP180;5346;48.766;8.674;2023-11-19T14:16:13;93738.00;;;14.00
10598;BMP180;5346;48.766;8.674;2023-11-19T14:18:47;93732.00;;;13.70
10598;BMP180;5346;48.766;8.674;2023-11-19T14:21:16;93729.00;;;13.60
10598;BMP180;5346;48.766;8.674;2023-11-19T14:23:54;93732.00;;;13.50
10598;BMP180;5346;48.766;8.674;2023-11-19T14:26:23;93736.00;;;13.50
10598;BMP180;5346;48.766;8.674;2023-11-19T14:28:57;93729.00;;;13.10
10598;BMP180;5346;48.766;8.674;2023-11-19T14:31:28;93751.00;;;12.70
10598;BMP180;5346;48.766;8.674;2023-11-19T14:34:03;93732.00;;;12.50
10598;BMP180;5346;48.766;8.674;2023-11-19T14:36:30;93746.00;;;12.30
10598;BMP180;5346;48.766;8.674;2023-11-19T14:39:05;93739.00;;;12.20
10598;BMP180;5346;48.766;8.674;2023-11-19T14:41:34;93740.00;;;12.00
10598;BMP180;5346;48.766;8.674;2023-11-19T14:44:09;93753.00;;;11.80
10598;BMP180;5346;48.766;8.674;2023-11-19T14:46:37;93757.00;;;12.30
10598;BMP180;5346;48.766;8.674;2023-11-19T14:49:12;93772.00;;;11.70
10598;BMP180;5346;48.766;8.674;2023-11-19T14:51:41;93759.00;;;11.20
10598;BMP180;5346;48.766;8.674;2023-11-19T14:54:16;93767.00;;;10.90
10598;BMP180;5346;48.766;8.674;2023-11-19T14:56:44;93761.00;;;10.70
10598;BMP180;5346;48.766;8.674;2023-11-19T14:59:18;93772.00;;;10.60
10598;BMP180;5346;48.766;8.674;2023-11-19T15:01:52;93768.00;;;10.50
10598;BMP180;5346;48.766;8.674;2023-11-19T15:04:32;93776.00;;;10.50
10598;BMP180;5346;48.766;8.674;2023-11-19T15:07:07;93783.00;;;10.40
10598;BMP180;5346;48.766;8.674;2023-11-19T15:09:35;93789.00;;;10.40
10598;BMP180;5346;48.766;8.674;2023-11-19T15:12:10;93775.00;;;10.40
10598;BMP180;5346;48.766;8.674;2023-11-19T15:14:45;93776.00;;;10.40
10598;BMP180;5346;48.766;8.674;2023-11-19T15:17:20;93765.00;;;10.20
10598;BMP180;5346;48.766;8.674;2023-11-19T15:19:51;93786.00;;;10.30
10598;BMP180;5346;48.766;8.674;2023-11-19T15:22:25;93781.00;;;10.40